Time;durP1;ratioP1;P1;durP2;ratioP2;P2;SDS_P1;SDS_P2;PMS_P1;PMS_P2;Temp;Humidity;BMP_temperature;BMP_pressure;BME280_temperature;BME280_humidity;BME280_pressure;Samples;Min_cycle;Max_cycle;Signal;HPM_P1;HPM_P2
2021/04/13 00:00:48;;;;;;;4.90;2.75;;;-0.60;99.90;;;;;;5074284;28;20031;-49
2021/04/13 00:03:13;;;;;;;3.05;2.40;;;-0.50;99.90;;;;;;5074205;28;20367;-48
2021/04/13 00:05:42;;;;;;;2.42;1.75;;;-0.50;99.90;;;;;;5074024;28;20070;-48
2021/04/13 00:08:12;;;;;;;5.53;2.35;;;-0.50;99.90;;;;;;5074116;28;20108;-48
2021/04/13 00:10:45;;;;;;;3.03;2.28;;;-0.40;99.90;;;;;;5074150;28;20060;-51
2021/04/13 00:13:12;;;;;;;5.40;2.70;;;-0.50;99.90;;;;;;5071486;28;20505;-50
2021/04/13 00:15:44;;;;;;;4.05;2.00;;;-0.50;99.90;;;;;;5074015;28;20036;-48
2021/04/13 00:18:15;;;;;;;5.38;2.50;;;-0.50;99.90;;;;;;5073714;28;20028;-47
2021/04/13 00:20:52;;;;;;;6.22;2.58;;;-0.40;99.90;;;;;;5073777;28;20066;-52
2021/04/13 00:23:19;;;;;;;3.63;2.20;;;-0.40;99.90;;;;;;5073454;28;20103;-51
2021/04/13 00:25:54;;;;;;;3.15;1.95;;;-0.40;99.90;;;;;;5073693;28;20031;-51
2021/04/13 00:28:23;;;;;;;6.97;2.63;;;-0.40;99.90;;;;;;5073133;28;20029;-49
2021/04/13 00:30:56;;;;;;;4.10;1.98;;;-0.40;99.90;;;;;;5071879;28;20464;-49
2021/04/13 00:33:29;;;;;;;4.00;1.88;;;-0.40;99.90;;;;;;5073465;28;20025;-51
2021/04/13 00:36:22;;;;;;;3.58;2.40;;;-0.30;99.90;;;;;;5073573;28;20028;-52
2021/04/13 00:38:50;;;;;;;2.53;1.95;;;-0.30;99.90;;;;;;5073312;28;20035;-48
2021/04/13 00:41:30;;;;;;;3.00;2.08;;;-0.30;99.90;;;;;;5072367;28;20028;-50
2021/04/13 00:44:06;;;;;;;2.92;1.60;;;-0.40;99.90;;;;;;5073134;28;20028;-51
2021/04/13 00:46:57;;;;;;;4.15;2.25;;;-0.40;99.90;;;;;;5073448;28;20036;-51
2021/04/13 00:49:27;;;;;;;2.63;1.92;;;-0.40;99.90;;;;;;5073155;28;20027;-50
2021/04/13 00:52:03;;;;;;;2.53;1.95;;;-0.40;99.90;;;;;;5073082;28;20027;-51
2021/04/13 00:54:39;;;;;;;3.05;1.88;;;-0.50;99.90;;;;;;5073036;28;20024;-49
2021/04/13 00:57:13;;;;;;;4.93;2.05;;;-0.50;99.90;;;;;;5072086;28;20090;-49
2021/04/13 00:59:39;;;;;;;2.42;1.45;;;-0.50;99.90;;;;;;5072934;28;20028;-50
2021/04/13 01:02:10;;;;;;;3.35;1.85;;;-0.50;99.90;;;;;;5072969;28;20077;-51
2021/04/13 01:04:39;;;;;;;3.67;2.15;;;-0.50;99.90;;;;;;5071675;28;20020;-50
2021/04/13 01:07:14;;;;;;;2.75;1.80;;;-0.50;99.90;;;;;;5073069;28;20155;-48
2021/04/13 01:09:45;;;;;;;3.00;1.90;;;-0.40;99.90;;;;;;5071642;28;20069;-50
2021/04/13 01:12:20;;;;;;;3.15;1.80;;;-0.50;99.90;;;;;;5072031;28;20024;-54
2021/04/13 01:14:48;;;;;;;3.60;2.10;;;-0.50;99.90;;;;;;5072468;28;20529;-49
2021/04/13 01:17:15;;;;;;;3.70;1.80;;;-0.50;99.90;;;;;;5072940;28;20024;-48
2021/04/13 01:19:59;;;;;;;3.67;2.00;;;-0.50;99.90;;;;;;5071502;28;20051;-49
2021/04/13 01:22:47;;;;;;;2.30;1.52;;;-0.50;99.90;;;;;;5072884;28;20096;-50
2021/04/13 01:25:28;;;;;;;5.72;1.88;;;-0.50;99.90;;;;;;5072659;28;20023;-52
2021/04/13 01:28:18;;;;;;;1.98;1.73;;;-0.50;99.90;;;;;;5071835;28;20098;-49
2021/04/13 01:30:57;;;;;;;2.33;1.40;;;-0.50;99.90;;;;;;5072157;28;20064;-52
2021/04/13 01:33:38;;;;;;;3.10;1.90;;;-0.50;99.90;;;;;;5072669;28;20024;-51
2021/04/13 01:36:24;;;;;;;5.68;2.80;;;-0.50;99.90;;;;;;5072601;28;20415;-51
2021/04/13 01:38:59;;;;;;;2.40;1.75;;;-0.60;99.90;;;;;;5072700;28;20052;-52
2021/04/13 01:41:32;;;;;;;2.72;1.75;;;-0.60;99.90;;;;;;5070790;28;20048;-52
2021/04/13 01:43:59;;;;;;;4.68;2.25;;;-0.60;99.90;;;;;;5072365;28;20024;-51
2021/04/13 01:46:25;;;;;;;2.92;1.73;;;-0.60;99.90;;;;;;5072576;28;20076;-48
2021/04/13 01:48:52;;;;;;;7.80;2.25;;;-0.60;99.90;;;;;;5072515;28;20200;-51
2021/04/13 01:51:18;;;;;;;3.03;1.88;;;-0.60;99.90;;;;;;5072399;28;20033;-48
2021/04/13 01:53:47;;;;;;;3.72;1.75;;;-0.70;99.90;;;;;;5072495;28;20028;-50
2021/04/13 01:56:43;;;;;;;2.90;1.95;;;-0.70;99.90;;;;;;5071287;28;20049;-52
2021/04/13 01:59:20;;;;;;;4.93;1.83;;;-0.70;99.90;;;;;;5072394;28;20078;-50
2021/04/13 02:01:54;;;;;;;4.38;2.40;;;-0.70;99.90;;;;;;5072309;28;20039;-52
2021/04/13 02:04:36;;;;;;;3.67;1.92;;;-0.70;99.90;;;;;;5072304;28;20027;-48
2021/04/13 02:07:23;;;;;;;2.03;1.50;;;-0.80;99.90;;;;;;5072343;28;20032;-50
2021/04/13 02:09:53;;;;;;;3.45;1.95;;;-0.80;99.90;;;;;;5072252;28;20056;-51
2021/04/13 02:12:31;;;;;;;3.70;2.10;;;-0.80;99.90;;;;;;5070164;28;20024;-50
2021/04/13 02:15:09;;;;;;;2.95;1.92;;;-0.90;99.90;;;;;;5071927;28;20029;-51
2021/04/13 02:17:45;;;;;;;3.95;2.55;;;-0.90;99.90;;;;;;5072362;28;20048;-48
2021/04/13 02:20:13;;;;;;;4.35;1.90;;;-0.90;99.90;;;;;;5070814;28;20033;-49
2021/04/13 02:22:47;;;;;;;4.53;2.08;;;-1.00;99.90;;;;;;5071973;28;20099;-50
2021/04/13 02:25:17;;;;;;;2.75;1.60;;;-1.10;99.90;;;;;;5072067;28;20086;-49
2021/04/13 02:27:46;;;;;;;2.85;1.92;;;-1.10;99.90;;;;;;5071160;28;20020;-48
2021/04/13 02:30:15;;;;;;;5.43;2.47;;;-1.10;99.90;;;;;;5071859;28;20033;-53
2021/04/13 02:32:45;;;;;;;3.42;1.95;;;-1.20;99.90;;;;;;5072192;28;20506;-51
2021/04/13 02:35:18;;;;;;;5.10;2.08;;;-1.20;99.90;;;;;;5071873;28;20032;-48
2021/04/13 02:37:58;;;;;;;3.47;2.30;;;-1.20;99.90;;;;;;5072180;28;20544;-48
2021/04/13 02:40:36;;;;;;;7.10;2.30;;;-1.30;99.90;;;;;;5071970;28;20488;-48
2021/04/13 02:43:08;;;;;;;2.70;1.95;;;-1.30;99.90;;;;;;5070998;28;20387;-50
2021/04/13 02:45:53;;;;;;;3.83;2.38;;;-1.40;99.90;;;;;;5071816;28;20047;-48
2021/04/13 02:48:29;;;;;;;3.95;2.00;;;-1.40;99.90;;;;;;5071943;28;20487;-48
2021/04/13 02:51:04;;;;;;;3.78;2.38;;;-1.50;99.90;;;;;;5071656;28;20058;-50
2021/04/13 02:53:43;;;;;;;2.60;1.85;;;-1.50;99.90;;;;;;5074581;28;20407;-47
2021/04/13 02:56:16;;;;;;;4.30;2.50;;;-1.60;99.90;;;;;;5074229;28;20045;-53
2021/04/13 02:58:50;;;;;;;3.40;2.10;;;-1.60;99.90;;;;;;5075446;28;20048;-49
2021/04/13 03:01:20;;;;;;;4.57;3.03;;;-1.70;99.90;;;;;;5075146;28;20027;-51
2021/04/13 03:03:46;;;;;;;6.45;3.92;;;-1.70;99.90;;;;;;5075392;28;20016;-49
2021/04/13 03:06:12;;;;;;;7.15;3.95;;;-1.70;99.90;;;;;;5055262;28;20532;-48
2021/04/13 03:08:41;;;;;;;5.10;3.13;;;-1.70;99.90;;;;;;5055394;28;20096;-50
2021/04/13 03:11:19;;;;;;;5.03;3.00;;;-1.70;99.90;;;;;;5054160;28;20542;-49
2021/04/13 03:13:47;;;;;;;6.97;2.85;;;-1.70;99.90;;;;;;5055063;28;20484;-48
2021/04/13 03:16:16;;;;;;;5.43;3.17;;;-1.70;99.90;;;;;;5053540;28;20083;-47
2021/04/13 03:18:47;;;;;;;7.63;2.90;;;-1.80;99.90;;;;;;5055219;28;20071;-48
2021/04/13 03:21:19;;;;;;;7.20;3.50;;;-1.80;99.90;;;;;;5054859;28;20100;-52
2021/04/13 03:23:46;;;;;;;5.40;3.03;;;-1.80;99.90;;;;;;5055027;28;20013;-52
2021/04/13 03:26:29;;;;;;;4.63;2.88;;;-1.90;99.90;;;;;;5052456;28;20112;-48
2021/04/13 03:29:01;;;;;;;5.38;2.75;;;-1.90;99.90;;;;;;5054865;28;20104;-49
2021/04/13 03:31:32;;;;;;;7.93;4.25;;;-1.90;99.90;;;;;;5054609;28;20358;-51
2021/04/13 03:34:01;;;;;;;5.50;3.17;;;-1.90;99.90;;;;;;5054738;28;20075;-50
2021/04/13 03:36:27;;;;;;;9.68;3.75;;;-1.90;99.90;;;;;;5054728;28;20025;-48
2021/04/13 03:39:00;;;;;;;7.80;4.30;;;-1.90;99.90;;;;;;5054737;28;20092;-48
2021/04/13 03:41:26;;;;;;;7.53;4.38;;;-1.90;99.90;;;;;;5053581;28;20017;-49
2021/04/13 03:44:00;;;;;;;6.45;3.10;;;-1.90;99.90;;;;;;5054706;28;20024;-50
2021/04/13 03:46:37;;;;;;;8.77;4.22;;;-1.90;99.90;;;;;;5054334;28;20070;-49
2021/04/13 03:49:06;;;;;;;5.82;3.45;;;-1.80;99.90;;;;;;5054464;28;20182;-49
2021/04/13 03:51:39;;;;;;;9.73;4.68;;;-1.80;99.90;;;;;;5064490;28;20522;-49
2021/04/13 03:54:19;;;;;;;8.38;3.97;;;-1.70;99.90;;;;;;5074285;28;20070;-48
2021/04/13 03:56:44;;;;;;;10.52;5.07;;;-1.70;99.90;;;;;;5073253;28;20041;-53
2021/04/13 03:59:21;;;;;;;6.90;3.85;;;-1.70;99.90;;;;;;5074316;28;20027;-49
2021/04/13 04:01:49;;;;;;;6.55;3.65;;;-1.60;99.90;;;;;;5074039;28;20024;-49
2021/04/13 04:04:20;;;;;;;7.95;4.57;;;-1.60;99.90;;;;;;5073412;28;20111;-48
2021/04/13 04:06:53;;;;;;;5.78;3.55;;;-1.60;99.90;;;;;;5074312;28;20185;-48
2021/04/13 04:09:27;;;;;;;7.00;3.65;;;-1.60;99.90;;;;;;5069937;28;20028;-48
2021/04/13 04:11:54;;;;;;;7.13;4.55;;;-1.60;99.90;;;;;;5071650;28;20021;-50
2021/04/13 04:14:23;;;;;;;8.52;4.80;;;-1.60;99.90;;;;;;5073162;28;20396;-49
2021/04/13 04:16:49;;;;;;;10.68;4.60;;;-1.60;99.90;;;;;;5073398;28;20028;-52
2021/04/13 04:19:18;;;;;;;7.25;3.78;;;-1.60;99.90;;;;;;5073703;28;20383;-49
2021/04/13 04:21:47;;;;;;;8.52;4.28;;;-1.60;99.90;;;;;;5073535;28;20039;-50
2021/04/13 04:24:30;;;;;;;7.25;4.07;;;-1.50;99.90;;;;;;5073326;28;20077;-47
2021/04/13 04:27:17;;;;;;;12.13;5.70;;;-1.50;99.90;;;;;;5072607;28;20479;-49
2021/04/13 04:30:07;;;;;;;9.80;4.50;;;-1.40;99.90;;;;;;5072811;28;20067;-53
2021/04/13 04:32:33;;;;;;;16.38;6.78;;;-1.30;99.90;;;;;;5073340;28;20424;-52
2021/04/13 04:35:02;;;;;;;21.90;8.13;;;-1.20;99.90;;;;;;5073187;28;20021;-49
2021/04/13 04:37:36;;;;;;;15.80;6.78;;;-1.20;99.90;;;;;;5073191;28;20060;-49
2021/04/13 04:40:26;;;;;;;14.88;5.85;;;-1.10;99.90;;;;;;5072827;28;20024;-49
2021/04/13 04:43:01;;;;;;;7.25;4.55;;;-0.90;99.90;;;;;;5072112;28;20059;-48
2021/04/13 04:45:44;;;;;;;14.48;5.68;;;-0.80;99.90;;;;;;5073187;28;20032;-49
2021/04/13 04:48:30;;;;;;;9.77;4.78;;;-0.60;99.90;;;;;;5073008;28;20020;-49
2021/04/13 04:51:04;;;;;;;7.68;4.30;;;-0.40;99.90;;;;;;5072920;28;20134;-48
2021/04/13 04:53:31;;;;;;;6.95;3.95;;;-0.20;99.90;;;;;;5072710;28;20109;-48
2021/04/13 04:55:58;;;;;;;7.82;4.50;;;0.00;99.90;;;;;;5068859;28;20045;-50
2021/04/13 04:58:24;;;;;;;8.77;4.47;;;0.50;99.90;;;;;;5072573;28;20068;-49
2021/04/13 05:00:51;;;;;;;9.00;4.22;;;1.10;99.90;;;;;;5072638;28;20180;-49
2021/04/13 05:03:18;;;;;;;8.02;4.53;;;1.60;99.90;;;;;;5072481;28;20020;-48
2021/04/13 05:05:44;;;;;;;8.90;4.88;;;2.00;99.90;;;;;;5088980;28;20020;-52
2021/04/13 05:08:10;;;;;;;8.90;3.95;;;2.50;99.90;;;;;;5092839;28;20032;-48
2021/04/13 05:10:36;;;;;;;5.07;3.75;;;2.90;99.90;;;;;;5085080;28;20028;-47
2021/04/13 05:13:02;;;;;;;5.15;3.70;;;3.00;99.90;;;;;;5071485;28;20051;-48
2021/04/13 05:15:27;;;;;;;4.78;3.65;;;3.30;99.90;;;;;;5072392;28;20086;-46
2021/04/13 05:17:53;;;;;;;5.10;2.92;;;3.60;99.90;;;;;;5072525;28;20029;-47
2021/04/13 05:20:19;;;;;;;6.72;3.55;;;3.90;99.90;;;;;;5072067;28;20082;-48
2021/04/13 05:22:45;;;;;;;5.18;3.33;;;4.20;99.90;;;;;;5072286;28;20051;-49
2021/04/13 05:25:12;;;;;;;6.18;4.22;;;4.40;99.90;;;;;;5072515;28;20032;-51
2021/04/13 05:27:38;;;;;;;4.55;3.13;;;4.80;99.90;;;;;;5071524;28;20031;-49
2021/04/13 05:30:06;;;;;;;5.25;3.45;;;5.10;99.90;;;;;;5071241;28;20039;-49
2021/04/13 05:32:31;;;;;;;5.35;3.00;;;5.40;99.90;;;;;;5072495;28;20081;-52
2021/04/13 05:34:57;;;;;;;4.97;3.58;;;5.70;99.90;;;;;;5072251;28;20477;-49
2021/04/13 05:37:25;;;;;;;4.97;2.95;;;6.30;99.10;;;;;;5072109;28;20506;-50
2021/04/13 05:39:51;;;;;;;5.53;3.28;;;6.80;96.90;;;;;;5072377;28;20020;-52
2021/04/13 05:42:22;;;;;;;8.80;3.78;;;7.20;95.20;;;;;;5070088;28;20527;-50
2021/04/13 05:44:47;;;;;;;4.97;3.95;;;7.60;93.90;;;;;;5072247;28;20024;-51
2021/04/13 05:47:14;;;;;;;4.50;3.47;;;7.70;92.80;;;;;;5071987;28;20495;-46
2021/04/13 05:49:40;;;;;;;4.72;3.45;;;7.90;92.20;;;;;;5072179;28;20036;-47
2021/04/13 05:52:05;;;;;;;6.88;3.78;;;8.00;91.50;;;;;;5072015;28;20373;-47
2021/04/13 05:54:31;;;;;;;6.10;3.75;;;8.80;90.80;;;;;;5072039;28;20017;-51
2021/04/13 05:56:56;;;;;;;5.65;3.10;;;9.70;89.30;;;;;;5071482;28;20056;-50
2021/04/13 05:59:22;;;;;;;2.88;2.33;;;10.50;85.40;;;;;;5072486;28;20024;-49
2021/04/13 06:01:49;;;;;;;3.67;2.72;;;11.20;82.40;;;;;;5072004;28;20021;-48
2021/04/13 06:04:15;;;;;;;2.58;2.38;;;12.00;80.90;;;;;;5075868;28;20060;-49
2021/04/13 06:06:41;;;;;;;6.15;3.53;;;12.60;78.10;;;;;;5092375;28;20024;-48
2021/04/13 06:09:06;;;;;;;4.85;3.42;;;13.20;76.70;;;;;;5092469;28;20020;-49
2021/04/13 06:11:32;;;;;;;5.93;3.90;;;13.80;75.10;;;;;;5091059;28;20032;-48
2021/04/13 06:14:00;;;;;;;4.93;3.53;;;14.40;74.10;;;;;;5092278;28;20545;-52
2021/04/13 06:16:47;;;;;;;3.97;3.17;;;15.10;71.90;;;;;;5092390;28;20107;-49
2021/04/13 06:19:13;;;;;;;4.57;4.07;;;15.70;70.00;;;;;;5092232;28;20016;-49
2021/04/13 06:21:41;;;;;;;4.93;3.25;;;16.20;69.70;;;;;;5092090;28;20032;-51
2021/04/13 06:24:08;;;;;;;3.67;3.08;;;16.50;67.50;;;;;;5092183;28;20418;-52
2021/04/13 06:26:33;;;;;;;4.38;3.50;;;16.90;66.80;;;;;;5091269;28;20039;-50
2021/04/13 06:28:59;;;;;;;4.82;3.35;;;17.50;65.90;;;;;;5095939;28;20032;-50
2021/04/13 06:31:24;;;;;;;4.32;3.50;;;17.80;64.80;;;;;;5095878;28;20043;-50
2021/04/13 06:33:50;;;;;;;4.40;3.22;;;17.90;63.70;;;;;;5095624;28;20102;-49
2021/04/13 06:36:18;;;;;;;5.90;3.50;;;17.90;64.00;;;;;;5095883;28;20028;-49
2021/04/13 06:38:45;;;;;;;4.75;3.50;;;17.90;63.80;;;;;;5096007;28;20149;-50
2021/04/13 06:41:51;;;;;;;4.63;3.47;;;17.90;63.10;;;;;;5094775;28;20020;-48
2021/04/13 06:44:22;;;;;;;3.50;3.17;;;18.10;55.20;;;;;;5095556;28;20321;-49
2021/04/13 06:46:59;;;;;;;4.22;2.92;;;18.30;61.20;;;;;;5095807;28;20039;-51
2021/04/13 06:49:49;;;;;;;8.40;3.08;;;18.50;59.90;;;;;;5095819;28;20056;-49
2021/04/13 06:52:53;;;;;;;3.05;2.78;;;18.40;55.10;;;;;;5078940;28;20048;-49
2021/04/13 06:55:43;;;;;;;4.18;3.70;;;18.50;56.00;;;;;;5075238;28;20567;-51
2021/04/13 06:58:35;;;;;;;4.57;2.90;;;18.70;60.00;;;;;;5075223;28;20025;-48
2021/04/13 07:01:38;;;;;;;4.18;3.40;;;19.20;55.10;;;;;;5075063;28;20024;-47
2021/04/13 07:04:25;;;;;;;2.97;2.72;;;19.10;54.90;;;;;;5077380;28;20033;-51
2021/04/13 07:07:13;;;;;;;5.30;3.63;;;18.50;56.60;;;;;;5095379;28;20020;-53
2021/04/13 07:09:43;;;;;;;4.15;2.40;;;18.60;55.70;;;;;;5093756;28;20043;-52
2021/04/13 07:12:17;;;;;;;3.90;2.70;;;18.20;59.20;;;;;;5094428;28;20028;-48
2021/04/13 07:15:20;;;;;;;7.07;2.40;;;18.30;58.70;;;;;;5095031;28;20024;-49
2021/04/13 07:18:15;;;;;;;3.72;1.60;;;19.10;52.10;;;;;;5095066;28;20448;-51
2021/04/13 07:20:50;;;;;;;3.42;2.10;;;19.70;52.30;;;;;;5094916;28;20034;-48
2021/04/13 07:23:24;;;;;;;2.20;1.50;;;19.90;55.00;;;;;;5094906;28;20048;-46
2021/04/13 07:25:57;;;;;;;2.45;1.88;;;19.70;54.60;;;;;;5094089;28;20397;-47
2021/04/13 07:28:28;;;;;;;4.18;2.08;;;18.40;55.10;;;;;;5095078;28;20059;-51
2021/04/13 07:31:05;;;;;;;3.83;1.80;;;18.10;55.60;;;;;;5095012;28;20028;-48
2021/04/13 07:33:34;;;;;;;3.55;2.03;;;18.30;53.00;;;;;;5094729;28;20097;-47
2021/04/13 07:36:23;;;;;;;4.03;1.95;;;18.90;55.10;;;;;;5094903;28;20020;-47
2021/04/13 07:38:50;;;;;;;4.65;2.05;;;19.90;49.20;;;;;;5094799;28;20030;-46
2021/04/13 07:41:35;;;;;;;1.75;1.65;;;20.70;52.70;;;;;;5093647;28;20382;-47
2021/04/13 07:44:09;;;;;;;5.45;2.08;;;20.80;49.30;;;;;;5094592;28;20035;-49
2021/04/13 07:46:46;;;;;;;5.13;2.45;;;20.50;51.80;;;;;;5094654;28;20097;-46
2021/04/13 07:49:27;;;;;;;3.15;2.10;;;19.90;51.10;;;;;;5094738;28;20051;-51
2021/04/13 07:52:11;;;;;;;3.30;1.90;;;18.90;52.10;;;;;;5081050;28;20044;-49
2021/04/13 07:54:41;;;;;;;3.03;1.70;;;19.10;50.80;;;;;;5073994;28;20032;-47
2021/04/13 07:57:49;;;;;;;4.80;1.50;;;19.50;50.80;;;;;;5073119;28;20266;-50
2021/04/13 08:00:30;;;;;;;2.50;1.90;;;19.90;47.00;;;;;;5074148;28;20372;-47
2021/04/13 08:03:09;;;;;;;5.13;2.47;;;19.40;47.60;;;;;;5073931;28;20021;-48
2021/04/13 08:05:44;;;;;;;4.70;1.75;;;18.20;50.20;;;;;;5088897;28;20032;-49
2021/04/13 08:08:26;;;;;;;2.13;1.25;;;18.10;52.00;;;;;;5094252;28;20024;-51
2021/04/13 08:11:09;;;;;;;3.05;1.65;;;18.80;47.60;;;;;;5093092;28;20024;-48
2021/04/13 08:13:35;;;;;;;1.52;1.30;;;18.80;48.90;;;;;;5093838;28;20463;-49
2021/04/13 08:16:01;;;;;;;3.88;1.40;;;19.90;49.90;;;;;;5093928;28;20024;-50
2021/04/13 08:18:39;;;;;;;4.38;1.40;;;20.40;48.60;;;;;;5093993;28;20468;-50
2021/04/13 08:21:20;;;;;;;3.03;1.20;;;20.90;46.40;;;;;;5093915;28;20047;-46
2021/04/13 08:23:46;;;;;;;4.43;2.05;;;20.60;47.60;;;;;;5092258;28;20028;-46
2021/04/13 08:26:25;;;;;;;3.65;1.42;;;20.40;47.70;;;;;;5093063;28;20099;-46
2021/04/13 08:29:10;;;;;;;2.65;1.92;;;20.20;47.20;;;;;;5093836;28;20056;-50
2021/04/13 08:35:04;;;;;;;4.65;2.13;;;19.70;47.50;;;;;;5093321;28;20073;-48
2021/04/13 08:37:51;;;;;;;1.73;1.30;;;20.40;45.00;;;;;;5093534;28;20024;-51
2021/04/13 08:40:34;;;;;;;4.82;1.73;;;19.30;43.60;;;;;;5093630;28;20054;-48
2021/04/13 08:43:15;;;;;;;4.40;1.65;;;19.50;46.10;;;;;;5092471;28;20027;-50
2021/04/13 08:45:46;;;;;;;1.33;1.23;;;19.90;46.80;;;;;;5093545;28;20035;-47
2021/04/13 08:48:49;;;;;;;2.78;1.77;;;19.60;47.10;;;;;;5093554;28;20024;-47
2021/04/13 08:51:20;;;;;;;5.93;1.95;;;19.70;44.20;;;;;;5065486;28;20484;-46
2021/04/13 08:53:49;;;;;;;2.38;1.58;;;19.00;46.00;;;;;;5071281;28;20028;-50
2021/04/13 08:56:26;;;;;;;2.72;1.45;;;18.30;47.50;;;;;;5072067;28;20038;-50
2021/04/13 08:58:58;;;;;;;3.35;2.30;;;18.90;47.00;;;;;;5073129;28;20027;-47
2021/04/13 09:01:31;;;;;;;3.30;1.63;;;19.50;45.30;;;;;;5072911;28;20023;-48
2021/04/13 09:03:58;;;;;;;2.92;1.58;;;20.30;45.30;;;;;;5073994;28;20040;-47
2021/04/13 09:06:58;;;;;;;3.80;1.90;;;20.90;44.90;;;;;;5093357;28;20017;-49
2021/04/13 09:09:51;;;;;;;4.03;1.52;;;20.30;43.30;;;;;;5093087;28;20408;-48
2021/04/13 09:12:16;;;;;;;2.70;1.67;;;19.30;44.70;;;;;;5091992;28;20070;-49
2021/04/13 09:15:03;;;;;;;3.55;1.85;;;18.10;45.70;;;;;;5092623;28;20024;-47
2021/04/13 09:17:35;;;;;;;2.58;1.75;;;17.20;46.50;;;;;;5093074;28;20028;-49
2021/04/13 09:20:26;;;;;;;2.22;1.55;;;16.80;46.30;;;;;;5092686;28;20039;-49
2021/04/13 09:23:04;;;;;;;2.42;1.08;;;16.70;46.70;;;;;;5092640;28;20070;-48
2021/04/13 09:25:36;;;;;;;2.15;1.35;;;16.40;47.70;;;;;;5092645;28;20028;-52
2021/04/13 09:28:23;;;;;;;3.35;1.90;;;16.70;47.60;;;;;;5092478;28;20031;-48
2021/04/13 09:31:06;;;;;;;2.20;1.17;;;16.80;46.50;;;;;;5092581;28;20055;-47
2021/04/13 09:33:36;;;;;;;2.78;1.20;;;16.10;47.60;;;;;;5092510;28;20475;-50
2021/04/13 09:36:34;;;;;;;2.67;1.48;;;15.50;47.90;;;;;;5092886;28;20379;-49
2021/04/13 09:39:23;;;;;;;4.53;1.50;;;15.70;48.20;;;;;;5091286;28;20038;-53
2021/04/13 09:42:05;;;;;;;2.65;1.15;;;15.60;48.30;;;;;;5091444;28;20514;-51
2021/04/13 09:44:52;;;;;;;3.55;1.73;;;15.80;48.40;;;;;;5092576;28;20422;-49
2021/04/13 09:47:39;;;;;;;1.85;1.08;;;15.70;47.10;;;;;;5091426;28;20032;-49
2021/04/13 09:50:11;;;;;;;3.25;1.52;;;15.30;48.30;;;;;;5092293;28;20068;-52
2021/04/13 09:52:45;;;;;;;1.42;1.30;;;14.90;48.70;;;;;;5072795;28;20128;-50
2021/04/13 09:55:50;;;;;;;3.22;1.15;;;15.10;48.80;;;;;;5072138;28;20344;-48
2021/04/13 09:58:35;;;;;;;2.60;1.60;;;15.50;48.50;;;;;;5072299;28;20120;-48
2021/04/13 10:01:26;;;;;;;3.35;1.10;;;16.40;47.30;;;;;;5072048;28;20020;-48
2021/04/13 10:04:10;;;;;;;2.92;1.65;;;16.20;47.30;;;;;;5076283;28;20027;-47
2021/04/13 10:06:41;;;;;;;3.38;1.05;;;16.40;47.30;;;;;;5096477;28;20367;-51
2021/04/13 10:09:16;;;;;;;3.35;1.00;;;16.60;46.80;;;;;;5096730;28;20016;-48
2021/04/13 10:12:20;;;;;;;4.80;1.42;;;16.60;46.50;;;;;;5095203;28;20016;-49
2021/04/13 10:15:29;;;;;;;3.17;1.20;;;16.40;46.20;;;;;;5091979;28;20059;-48
2021/04/13 10:18:06;;;;;;;2.28;1.15;;;15.80;46.70;;;;;;5096395;28;20054;-48
2021/04/13 10:21:03;;;;;;;3.78;1.33;;;15.30;47.90;;;;;;5095025;28;20020;-51
2021/04/13 10:24:00;;;;;;;2.08;1.30;;;14.80;48.50;;;;;;5096120;28;20119;-48
2021/04/13 10:26:34;;;;;;;5.80;1.40;;;14.40;49.20;;;;;;5095222;28;20479;-50
2021/04/13 10:29:24;;;;;;;2.45;1.10;;;14.00;49.80;;;;;;5096237;28;20443;-50
2021/04/13 10:32:33;;;;;;;2.70;1.20;;;14.00;50.00;;;;;;5095954;28;20222;-47
2021/04/13 10:35:23;;;;;;;2.70;1.00;;;14.00;49.80;;;;;;5053810;28;20044;-50
2021/04/13 10:38:15;;;;;;;3.60;1.95;;;14.00;49.80;;;;;;5095890;28;20509;-48
2021/04/13 10:41:17;;;;;;;3.30;1.80;;;13.90;50.50;;;;;;5094623;28;20059;-48
2021/04/13 10:44:11;;;;;;;2.95;1.50;;;13.70;50.10;;;;;;5095666;28;20024;-50
2021/04/13 10:46:50;;;;;;;4.20;1.70;;;13.40;51.00;;;;;;5095560;28;20060;-49
2021/04/13 10:49:21;;;;;;;4.63;1.23;;;13.00;51.10;;;;;;5095886;28;20027;-52
2021/04/13 10:52:38;;;;;;;4.05;1.10;;;12.90;51.20;;;;;;5082849;28;20054;-49
2021/04/13 10:55:33;;;;;;;4.72;1.50;;;12.80;51.90;;;;;;5075148;28;20511;-50
2021/04/13 10:58:45;;;;;;;1.92;1.23;;;13.10;51.80;;;;;;5073491;28;20467;-50
2021/04/13 11:01:34;;;;;;;2.90;1.13;;;13.20;51.00;;;;;;5073907;28;20412;-49
2021/04/13 11:04:29;;;;;;;2.80;1.00;;;13.20;50.00;;;;;;5075659;28;20021;-51
2021/04/13 11:07:19;;;;;;;3.80;1.23;;;13.40;49.90;;;;;;5076567;28;20067;-48
2021/04/13 11:10:12;;;;;;;2.90;1.45;;;13.50;49.50;;;;;;5093996;28;20024;-50
2021/04/13 11:13:10;;;;;;;4.03;1.48;;;13.60;49.40;;;;;;5092722;28;20052;-52
2021/04/13 11:15:41;;;;;;;;;;;13.40;49.50;;;;;;5094536;28;20027;-52
2021/04/13 11:18:28;;;;;;;3.78;1.60;;;13.10;50.50;;;;;;5094162;28;19993;-49
2021/04/13 11:21:11;;;;;;;1.77;1.13;;;13.10;50.70;;;;;;5093810;28;20133;-48
2021/04/13 11:23:51;;;;;;;3.28;1.55;;;13.30;51.00;;;;;;5093802;28;20062;-53
2021/04/13 11:26:52;;;;;;;4.95;1.30;;;13.30;50.60;;;;;;5092967;28;20024;-52
2021/04/13 11:29:59;;;;;;;3.45;1.50;;;13.20;50.60;;;;;;5094118;28;20176;-49
2021/04/13 11:33:05;;;;;;;5.32;1.45;;;13.10;51.10;;;;;;5093977;28;20028;-47
2021/04/13 11:35:41;;;;;;;3.35;1.75;;;13.20;51.70;;;;;;5093820;28;20107;-48
2021/04/13 11:38:20;;;;;;;2.17;1.50;;;13.20;51.20;;;;;;5093847;28;20146;-49
2021/04/13 11:40:49;;;;;;;3.47;1.45;;;13.10;51.30;;;;;;5092527;28;20027;-51
2021/04/13 11:43:18;;;;;;;4.88;1.42;;;13.10;51.50;;;;;;5093440;28;20027;-50
2021/04/13 11:46:04;;;;;;;4.88;1.60;;;13.10;51.60;;;;;;5093735;28;20386;-50
2021/04/13 11:48:45;;;;;;;3.65;1.40;;;13.10;51.90;;;;;;5093633;28;20504;-50
2021/04/13 11:51:31;;;;;;;3.78;1.42;;;13.00;51.80;;;;;;5085777;28;20032;-47
2021/04/13 11:54:17;;;;;;;2.77;1.10;;;13.20;51.40;;;;;;5073029;28;20028;-50
2021/04/13 11:56:42;;;;;;;4.45;1.40;;;13.30;51.10;;;;;;5055105;28;502272;-50
2021/04/13 11:59:16;;;;;;;3.33;1.30;;;13.40;51.00;;;;;;5074015;28;20513;-49
2021/04/13 12:01:56;;;;;;;5.05;1.83;;;13.30;50.90;;;;;;5073930;28;20124;-50
2021/04/13 12:04:44;;;;;;;4.95;1.73;;;13.00;50.50;;;;;;5078874;28;20024;-46
2021/04/13 12:07:09;;;;;;;6.00;1.80;;;12.80;50.90;;;;;;5094335;28;20035;-48
2021/04/13 12:09:59;;;;;;;5.32;1.33;;;12.60;50.50;;;;;;5094175;28;20375;-49
2021/04/13 12:12:30;;;;;;;3.95;1.50;;;12.40;50.40;;;;;;5093001;28;20038;-50
2021/04/13 12:15:03;;;;;;;5.63;1.20;;;12.40;51.30;;;;;;5093852;28;20043;-48
2021/04/13 12:17:43;;;;;;;3.30;1.30;;;12.30;51.40;;;;;;5094281;28;20073;-48
2021/04/13 12:23:13;;;;;;;3.97;0.93;;;12.20;50.20;;;;;;5093767;28;20028;-48
2021/04/13 12:25:40;;;;;;;;;;;12.30;50.50;;;;;;5092320;28;20038;-49
2021/04/13 12:28:17;;;;;;;2.97;1.50;;;12.40;50.80;;;;;;5093696;28;19914;-53
2021/04/13 12:30:42;;;;;;;4.00;1.33;;;12.30;51.00;;;;;;5092388;28;20023;-49
2021/04/13 12:33:28;;;;;;;2.08;0.90;;;12.10;51.30;;;;;;5093429;28;20028;-51
2021/04/13 12:36:03;;;;;;;4.40;1.15;;;11.80;52.20;;;;;;5082907;28;20081;-53
2021/04/13 12:38:51;;;;;;;3.88;1.27;;;11.60;52.20;;;;;;5093735;28;20027;-48
2021/04/13 12:41:17;;;;;;;5.47;1.67;;;11.40;52.40;;;;;;5092465;28;20031;-49
2021/04/13 12:43:46;;;;;;;5.40;1.30;;;11.40;52.70;;;;;;5093427;28;20028;-47
2021/04/13 12:46:32;;;;;;;3.45;1.30;;;11.40;52.50;;;;;;5093493;28;20020;-48
2021/04/13 12:49:12;;;;;;;4.25;1.20;;;11.50;53.00;;;;;;5093390;28;20024;-51
2021/04/13 12:52:01;;;;;;;4.03;1.50;;;11.70;52.20;;;;;;5081738;28;20039;-53
2021/04/13 12:54:40;;;;;;;5.22;1.23;;;11.80;52.10;;;;;;5073063;28;20107;-48
2021/04/13 12:57:11;;;;;;;3.05;1.27;;;11.90;51.70;;;;;;5072010;28;20048;-49
2021/04/13 12:59:37;;;;;;;3.97;1.05;;;12.10;50.80;;;;;;5072696;28;20103;-47
2021/04/13 13:02:05;;;;;;;3.08;0.93;;;12.30;50.60;;;;;;5071617;28;20383;-52
2021/04/13 13:04:43;;;;;;;2.60;1.02;;;12.40;50.40;;;;;;5079014;28;20031;-52
2021/04/13 13:07:31;;;;;;;2.90;0.85;;;12.50;50.10;;;;;;5093187;28;20027;-51
2021/04/13 13:10:05;;;;;;;5.05;1.10;;;12.50;50.10;;;;;;5092874;28;20016;-49
2021/04/13 13:12:35;;;;;;;3.65;1.10;;;12.50;50.50;;;;;;5092027;28;20036;-53
2021/04/13 13:15:05;;;;;;;1.30;0.80;;;12.60;50.40;;;;;;5092750;28;20034;-49
2021/04/13 13:17:40;;;;;;;4.18;0.73;;;12.60;50.50;;;;;;5093157;28;20073;-50
2021/04/13 13:20:10;;;;;;;4.40;0.90;;;12.60;50.30;;;;;;5092829;28;20038;-49
2021/04/13 13:22:49;;;;;;;4.40;0.75;;;12.70;50.20;;;;;;5092862;28;20028;-48
2021/04/13 13:25:26;;;;;;;2.58;0.60;;;12.70;50.10;;;;;;5092761;28;20058;-50
2021/04/13 13:28:05;;;;;;;2.75;0.80;;;12.60;50.00;;;;;;5091908;28;20020;-49
2021/04/13 13:30:30;;;;;;;5.63;0.95;;;12.60;50.40;;;;;;5091365;28;20023;-52
2021/04/13 13:32:56;;;;;;;2.45;0.80;;;12.50;50.70;;;;;;5092501;28;20549;-52
2021/04/13 13:35:22;;;;;;;2.67;1.00;;;12.30;51.10;;;;;;5092649;28;20031;-50
2021/04/13 13:37:52;;;;;;;1.98;1.23;;;12.20;51.30;;;;;;5092633;28;20067;-48
2021/04/13 13:40:23;;;;;;;2.75;0.98;;;12.20;51.50;;;;;;5092587;28;20032;-51
2021/04/13 13:42:50;;;;;;;3.75;1.15;;;12.10;51.90;;;;;;5091513;28;20028;-48